createdAt,value
2023-01-01T00:01:45.173Z,43.12
2023-01-01T00:04:13.855Z,44.27
2023-01-01T00:06:41.525Z,43.60
2023-01-01T00:09:28.525Z,43.43
2023-01-01T00:11:56.038Z,43.80
2023-01-01T00:14:23.244Z,43.14
2023-01-01T00:16:50.478Z,44.64
2023-01-01T00:19:18.030Z,44.29
2023-01-01T00:21:46.520Z,43.42
2023-01-01T00:24:13.716Z,43.46
2023-01-01T00:26:41.271Z,42.86
2023-01-01T00:29:08.439Z,43.22
2023-01-01T00:31:35.594Z,43.21
2023-01-01T00:34:03.018Z,43.48
2023-01-01T00:36:30.359Z,43.50
2023-01-01T00:38:57.501Z,43.57
2023-01-01T00:41:25.063Z,44.25
2023-01-01T00:43:52.243Z,43.55
2023-01-01T00:46:19.535Z,44.41
2023-01-01T00:48:46.989Z,44.22
2023-01-01T00:51:14.199Z,44.22
2023-01-01T00:53:41.614Z,44.16
2023-01-01T00:56:09.605Z,44.58
2023-01-01T00:58:36.794Z,43.82
2023-01-01T01:01:04.087Z,43.78
2023-01-01T01:03:31.713Z,43.80
2023-01-01T01:06:04.864Z,44.63
2023-01-01T01:08:33.524Z,44.90
2023-01-01T01:11:07.419Z,44.96
2023-01-01T01:13:34.889Z,44.59
2023-01-01T01:16:02.276Z,44.76
2023-01-01T01:18:29.479Z,44.65
2023-01-01T01:21:15.648Z,44.20
2023-01-01T01:23:42.807Z,45.00
2023-01-01T01:26:29.420Z,44.43
2023-01-01T01:28:56.650Z,43.97
2023-01-01T01:31:24.751Z,44.00
2023-01-01T01:33:52.003Z,44.05
2023-01-01T01:36:19.273Z,43.94
2023-01-01T01:38:46.737Z,43.58
2023-01-01T01:41:26.700Z,43.50
2023-01-01T01:43:56.978Z,42.94
2023-01-01T01:46:31.841Z,43.16
2023-01-01T01:49:00.706Z,42.92
2023-01-01T01:51:29.484Z,43.04
2023-01-01T01:53:58.053Z,43.14
2023-01-01T01:56:29.991Z,42.84
2023-01-01T01:58:57.197Z,42.70
2023-01-01T02:01:24.720Z,42.50
2023-01-01T02:03:57.795Z,42.87
2023-01-01T02:06:25.847Z,42.99
2023-01-01T02:08:53.590Z,42.82
2023-01-01T02:11:22.180Z,43.67
2023-01-01T02:13:49.855Z,43.63
2023-01-01T02:16:20.328Z,43.33
2023-01-01T02:18:52.911Z,43.30
2023-01-01T02:21:21.425Z,44.87
2023-01-01T02:23:48.574Z,43.55
2023-01-01T02:26:38.505Z,43.40
2023-01-01T02:29:24.559Z,43.90
2023-01-01T02:32:00.849Z,43.91
2023-01-01T02:34:29.665Z,44.03
2023-01-01T02:36:56.834Z,43.99
2023-01-01T02:39:25.293Z,43.76
2023-01-01T02:41:53.164Z,43.83
2023-01-01T02:44:20.347Z,43.75
2023-01-01T02:46:47.531Z,43.72
2023-01-01T02:49:14.980Z,43.42
2023-01-01T02:51:45.376Z,43.25
2023-01-01T02:54:18.746Z,43.14
2023-01-01T02:56:59.164Z,43.05
2023-01-01T02:59:45.207Z,42.63
2023-01-01T03:02:12.710Z,42.64
2023-01-01T03:04:46.058Z,42.69
2023-01-01T03:07:32.194Z,44.38
2023-01-01T03:10:01.761Z,43.86
2023-01-01T03:12:43.622Z,43.48
2023-01-01T03:15:31.261Z,43.32
2023-01-01T03:18:28.104Z,43.33
2023-01-01T03:20:55.422Z,43.23
2023-01-01T03:23:24.842Z,42.77
2023-01-01T03:25:54.899Z,42.87
2023-01-01T03:28:23.007Z,43.71
2023-01-01T03:30:50.186Z,43.48
2023-01-01T03:33:19.035Z,43.40
2023-01-01T03:35:47.647Z,43.31
2023-01-01T03:38:16.282Z,43.50
2023-01-01T03:40:43.457Z,43.46
2023-01-01T03:43:19.939Z,44.00
2023-01-01T03:45:48.387Z,43.64
2023-01-01T03:48:15.938Z,43.53
2023-01-01T03:51:01.684Z,43.98
2023-01-01T03:53:34.151Z,44.01
2023-01-01T03:56:14.618Z,44.09
2023-01-01T03:58:49.987Z,44.02
2023-01-01T04:01:41.011Z,44.05
2023-01-01T04:04:08.884Z,44.19
2023-01-01T04:06:36.020Z,44.04
2023-01-01T04:09:03.425Z,43.99
2023-01-01T04:11:50.127Z,43.81
2023-01-01T04:14:28.288Z,44.35
2023-01-01T04:16:56.611Z,44.23
2023-01-01T04:19:23.766Z,44.20
2023-01-01T04:21:51.022Z,43.98
2023-01-01T04:24:18.469Z,43.93
2023-01-01T04:26:45.768Z,44.86
2023-01-01T04:29:12.895Z,44.85
2023-01-01T04:31:40.317Z,44.66
2023-01-01T04:34:07.525Z,44.76
2023-01-01T04:36:34.833Z,45.34
2023-01-01T04:39:02.431Z,46.23
2023-01-01T04:41:29.582Z,46.08
2023-01-01T04:43:56.900Z,46.29
2023-01-01T04:46:24.471Z,45.64
2023-01-01T04:48:51.647Z,45.93
2023-01-01T04:51:19.541Z,46.49
2023-01-01T04:53:47.106Z,45.83
2023-01-01T04:56:15.700Z,45.66
2023-01-01T04:58:43.263Z,46.91
2023-01-01T05:01:18.270Z,46.20
2023-01-01T05:03:45.662Z,45.32
2023-01-01T05:06:13.486Z,44.51
2023-01-01T05:08:41.667Z,45.40
2023-01-01T05:11:10.117Z,44.65
2023-01-01T05:13:39.508Z,44.28
2023-01-01T05:16:07.239Z,46.35
2023-01-01T05:18:35.109Z,44.69
2023-01-01T05:21:03.387Z,44.31
2023-01-01T05:23:31.657Z,43.50
2023-01-01T05:25:58.858Z,43.54
2023-01-01T05:28:26.271Z,44.32
2023-01-01T05:30:53.707Z,44.25
2023-01-01T05:33:20.880Z,44.22
2023-01-01T05:35:52.982Z,43.69
2023-01-01T05:38:20.159Z,43.28
2023-01-01T05:40:47.595Z,43.21
2023-01-01T05:43:16.260Z,43.15
2023-01-01T05:45:44.249Z,44.29
2023-01-01T05:48:11.752Z,44.09
2023-01-01T05:50:38.940Z,43.21
2023-01-01T05:53:06.101Z,43.43
2023-01-01T05:55:33.541Z,43.55
2023-01-01T05:58:00.675Z,43.17
2023-01-01T06:00:28.425Z,43.29
2023-01-01T06:02:55.905Z,43.38
2023-01-01T06:05:23.143Z,43.61
2023-01-01T06:07:50.365Z,44.00
2023-01-01T06:10:17.827Z,43.98
2023-01-01T06:12:44.969Z,43.60
2023-01-01T06:15:12.306Z,43.33
2023-01-01T06:17:39.764Z,43.37
2023-01-01T06:20:07.058Z,43.27
2023-01-01T06:22:36.282Z,43.59
2023-01-01T06:25:03.828Z,43.85
2023-01-01T06:27:31.033Z,44.05
2023-01-01T06:29:58.258Z,44.82
2023-01-01T06:32:26.273Z,44.49
2023-01-01T06:34:53.477Z,45.03
2023-01-01T06:37:20.671Z,45.28
2023-01-01T06:39:48.124Z,45.03
2023-01-01T06:42:15.271Z,44.74
2023-01-01T06:44:42.509Z,44.43
2023-01-01T06:47:10.064Z,44.48
2023-01-01T06:49:37.211Z,44.51
2023-01-01T06:52:04.381Z,44.94
2023-01-01T06:54:31.839Z,44.70
2023-01-01T06:56:59.006Z,44.76
2023-01-01T06:59:26.170Z,44.38
2023-01-01T07:01:53.957Z,44.19
2023-01-01T07:04:21.192Z,44.27
2023-01-01T07:06:48.359Z,44.07
2023-01-01T07:09:15.800Z,43.40
2023-01-01T07:11:43.036Z,44.60
2023-01-01T07:14:10.265Z,45.07
2023-01-01T07:16:37.748Z,45.06
2023-01-01T07:19:04.920Z,44.74
2023-01-01T07:21:33.482Z,44.68
2023-01-01T07:24:01.791Z,45.03
2023-01-01T07:26:29.280Z,45.18
2023-01-01T07:29:02.755Z,45.27
2023-01-01T07:31:33.731Z,45.26
2023-01-01T07:34:00.974Z,46.60
2023-01-01T07:36:28.130Z,46.74
2023-01-01T07:38:55.581Z,46.87
2023-01-01T07:41:22.725Z,46.88
2023-01-01T07:43:49.885Z,47.65
2023-01-01T07:46:19.040Z,48.08
2023-01-01T07:48:46.464Z,47.21
2023-01-01T07:51:13.867Z,47.20
2023-01-01T07:53:41.305Z,46.81
2023-01-01T07:56:08.478Z,47.75
2023-01-01T07:58:38.744Z,49.35
2023-01-01T08:01:06.252Z,48.78
2023-01-01T08:03:33.774Z,47.96
2023-01-01T08:06:03.633Z,47.82
2023-01-01T08:08:30.761Z,49.77
2023-01-01T08:11:03.829Z,48.56
2023-01-01T08:13:31.510Z,47.40
2023-01-01T08:15:59.162Z,46.56
2023-01-01T08:18:26.430Z,46.93
2023-01-01T08:20:54.456Z,48.89
2023-01-01T08:23:21.857Z,48.57
2023-01-01T08:25:49.003Z,48.50
2023-01-01T08:28:16.162Z,48.06
2023-01-01T08:30:43.603Z,49.12
2023-01-01T08:33:12.036Z,47.26
2023-01-01T08:35:40.470Z,48.02
2023-01-01T08:38:08.562Z,47.22
2023-01-01T08:40:36.633Z,47.97
2023-01-01T08:43:03.837Z,49.67
2023-01-01T08:45:31.271Z,49.31
2023-01-01T08:47:58.482Z,48.60
2023-01-01T08:50:26.501Z,48.63
2023-01-01T08:52:53.916Z,48.09
2023-01-01T08:55:21.140Z,49.23
2023-01-01T08:57:48.344Z,51.33
2023-01-01T09:00:16.399Z,50.74
2023-01-01T09:02:43.779Z,51.08
2023-01-01T09:05:11.035Z,52.20
2023-01-01T09:07:38.507Z,50.61
2023-01-01T09:10:05.990Z,55.21
2023-01-01T09:12:33.119Z,53.63
2023-01-01T09:15:00.549Z,52.94
2023-01-01T09:17:27.725Z,52.68
2023-01-01T09:19:55.772Z,52.53
2023-01-01T09:22:23.223Z,51.68
2023-01-01T09:24:50.391Z,51.60
2023-01-01T09:27:17.553Z,51.18
2023-01-01T09:29:44.993Z,49.87
2023-01-01T09:32:12.159Z,50.39
2023-01-01T09:34:39.317Z,50.15
2023-01-01T09:37:06.758Z,50.20
2023-01-01T09:39:33.926Z,49.97
2023-01-01T09:42:24.203Z,50.68
2023-01-01T09:44:57.794Z,50.27
2023-01-01T09:47:34.923Z,49.69
2023-01-01T09:50:06.947Z,50.24
2023-01-01T09:52:45.001Z,49.79
2023-01-01T09:55:20.469Z,50.79
2023-01-01T09:57:49.414Z,49.65
2023-01-01T10:00:17.434Z,49.61
2023-01-01T10:03:03.625Z,50.28
2023-01-01T10:05:34.282Z,50.68
2023-01-01T10:08:01.982Z,49.17
2023-01-01T10:10:41.945Z,50.75
2023-01-01T10:13:12.662Z,50.63
2023-01-01T10:15:40.773Z,49.53
2023-01-01T10:18:11.550Z,51.28
2023-01-01T10:20:44.852Z,48.51
2023-01-01T10:23:22.342Z,48.08
2023-01-01T10:25:49.788Z,48.00
2023-01-01T10:28:24.197Z,47.92
2023-01-01T10:30:56.443Z,47.75
2023-01-01T10:33:23.624Z,48.08
2023-01-01T10:35:50.959Z,49.55
2023-01-01T10:38:22.788Z,48.84
2023-01-01T10:40:51.271Z,48.49
2023-01-01T10:43:18.714Z,48.29
2023-01-01T10:45:47.197Z,49.02
2023-01-01T10:48:19.434Z,48.75
2023-01-01T10:50:46.910Z,49.05
2023-01-01T10:53:27.588Z,50.09
2023-01-01T10:56:04.441Z,50.63
2023-01-01T10:58:34.510Z,51.06
2023-01-01T11:01:02.842Z,50.54
2023-01-01T11:03:30.169Z,53.81
2023-01-01T11:06:16.150Z,52.62
2023-01-01T11:08:47.112Z,53.20
2023-01-01T11:11:33.740Z,54.69
2023-01-01T11:14:04.441Z,56.77
2023-01-01T11:16:31.774Z,56.09
2023-01-01T11:19:08.317Z,52.79
2023-01-01T11:21:35.811Z,52.13
2023-01-01T11:24:29.343Z,53.37
2023-01-01T11:27:11.725Z,52.88
2023-01-01T11:29:38.913Z,52.26
2023-01-01T11:32:06.971Z,52.98
2023-01-01T11:34:38.155Z,53.23
2023-01-01T11:37:14.482Z,52.41
2023-01-01T11:39:43.604Z,52.49
2023-01-01T11:42:11.686Z,52.53
2023-01-01T11:44:40.969Z,51.02
2023-01-01T11:47:08.451Z,51.94
2023-01-01T11:49:35.590Z,52.07
2023-01-01T11:52:06.590Z,51.65
2023-01-01T11:54:36.162Z,51.58
2023-01-01T11:57:12.980Z,50.46
2023-01-01T11:59:42.229Z,50.24
2023-01-01T12:02:12.048Z,50.05
2023-01-01T12:04:44.396Z,50.00
2023-01-01T12:07:13.295Z,50.42
2023-01-01T12:10:07.062Z,48.91
2023-01-01T12:12:39.903Z,47.40
2023-01-01T12:15:07.512Z,47.39
2023-01-01T12:17:35.316Z,47.70
2023-01-01T12:20:05.646Z,48.75
2023-01-01T12:22:33.157Z,48.57
2023-01-01T12:25:00.791Z,49.19
2023-01-01T12:27:27.932Z,48.98
2023-01-01T12:29:59.346Z,49.05
2023-01-01T12:32:45.338Z,48.73
2023-01-01T12:35:31.239Z,48.53
2023-01-01T12:37:58.427Z,50.87
2023-01-01T12:40:44.162Z,47.31
2023-01-01T12:43:12.243Z,48.43
2023-01-01T12:45:48.842Z,48.41
2023-01-01T12:48:35.947Z,48.31
2023-01-01T12:51:12.316Z,47.16
2023-01-01T12:54:14.772Z,47.94
2023-01-01T12:56:46.195Z,47.00
2023-01-01T12:59:14.630Z,48.06
2023-01-01T13:01:42.209Z,47.84
2023-01-01T13:04:27.532Z,49.00
2023-01-01T13:07:05.716Z,47.87
2023-01-01T13:09:37.320Z,47.28
2023-01-01T13:12:06.176Z,47.48
2023-01-01T13:14:39.660Z,47.10
2023-01-01T13:17:17.847Z,47.69
2023-01-01T13:19:44.988Z,46.75
2023-01-01T13:22:39.145Z,46.88
2023-01-01T13:25:09.202Z,47.19
2023-01-01T13:27:56.030Z,47.85
2023-01-01T13:30:35.470Z,47.12
2023-01-01T13:33:26.124Z,46.20
2023-01-01T13:36:09.202Z,46.03
2023-01-01T13:38:55.739Z,45.54
2023-01-01T13:41:41.754Z,45.70
2023-01-01T13:44:09.170Z,46.64
2023-01-01T13:46:39.332Z,46.20
2023-01-01T13:49:06.923Z,46.58
2023-01-01T13:54:42.704Z,46.84
2023-01-01T13:57:28.810Z,46.41
2023-01-01T14:00:18.959Z,47.97
2023-01-01T14:02:47.187Z,45.84
2023-01-01T14:05:14.513Z,46.42
2023-01-01T14:07:52.454Z,46.63
2023-01-01T14:10:27.799Z,46.08
2023-01-01T14:12:56.697Z,46.09
2023-01-01T14:15:31.431Z,46.42
2023-01-01T14:18:00.213Z,45.54
2023-01-01T14:20:32.104Z,45.83
2023-01-01T14:22:59.983Z,46.08
2023-01-01T14:25:28.000Z,46.54
2023-01-01T14:27:55.513Z,46.90
2023-01-01T14:30:22.795Z,47.14
2023-01-01T14:33:00.640Z,47.63
2023-01-01T14:35:28.150Z,46.17
2023-01-01T14:37:55.853Z,45.73
2023-01-01T14:40:28.160Z,46.20
2023-01-01T14:43:00.555Z,46.93
2023-01-01T14:45:27.769Z,46.94
2023-01-01T14:47:55.572Z,50.24
2023-01-01T14:50:29.627Z,50.91
2023-01-01T14:53:04.188Z,49.40
2023-01-01T14:55:38.273Z,52.82
2023-01-01T14:58:05.440Z,50.45
2023-01-01T15:00:34.030Z,50.65
2023-01-01T15:03:21.186Z,52.25
2023-01-01T15:05:59.436Z,52.61
2023-01-01T15:08:27.010Z,52.04
2023-01-01T15:10:54.739Z,54.39
2023-01-01T15:13:23.181Z,54.31
2023-01-01T15:15:51.617Z,51.80
2023-01-01T15:18:37.599Z,51.86
2023-01-01T15:21:06.340Z,51.50
2023-01-01T15:23:33.985Z,51.73
2023-01-01T15:26:01.132Z,50.76
2023-01-01T15:28:28.383Z,49.89
2023-01-01T15:30:56.042Z,50.87
2023-01-01T15:33:23.298Z,52.28
2023-01-01T15:35:50.984Z,53.14
2023-01-01T15:38:23.928Z,54.52
2023-01-01T15:40:53.548Z,52.21
2023-01-01T15:43:25.585Z,50.59
2023-01-01T15:45:55.886Z,50.74
2023-01-01T15:48:37.401Z,51.11
2023-01-01T15:51:05.667Z,50.24
2023-01-01T15:53:51.945Z,50.64
2023-01-01T15:56:19.300Z,52.58
2023-01-01T15:58:55.411Z,54.17
2023-01-01T16:01:23.851Z,54.26
2023-01-01T16:03:52.316Z,55.73
2023-01-01T16:06:22.262Z,53.30
2023-01-01T16:08:49.494Z,52.36
2023-01-01T16:11:19.803Z,51.60
2023-01-01T16:13:46.960Z,51.59
2023-01-01T16:16:21.273Z,52.81
2023-01-01T16:18:48.755Z,50.56
2023-01-01T16:21:15.940Z,51.62
2023-01-01T16:23:46.175Z,52.22
2023-01-01T16:26:15.274Z,53.34
2023-01-01T16:28:42.465Z,51.75
2023-01-01T16:31:23.667Z,52.94
2023-01-01T16:33:54.920Z,53.76
2023-01-01T16:36:22.589Z,55.62
2023-01-01T16:38:49.748Z,53.76
2023-01-01T16:41:17.606Z,53.90
2023-01-01T16:43:45.066Z,55.26
2023-01-01T16:46:13.650Z,55.33
2023-01-01T16:48:41.332Z,52.60
2023-01-01T16:51:14.867Z,55.25
2023-01-01T16:53:42.309Z,57.16
2023-01-01T16:56:10.427Z,54.42
2023-01-01T16:58:58.233Z,52.98
2023-01-01T17:01:25.392Z,54.47
2023-01-01T17:03:52.797Z,55.65
2023-01-01T17:06:20.079Z,57.58
2023-01-01T17:08:47.788Z,58.26
2023-01-01T17:11:16.774Z,57.36
2023-01-01T17:13:44.970Z,58.11
2023-01-01T17:16:21.182Z,59.31
2023-01-01T17:19:14.457Z,57.48
2023-01-01T17:21:40.282Z,58.10
2023-01-01T17:24:09.019Z,56.88
2023-01-01T17:26:36.254Z,55.66
2023-01-01T17:29:03.877Z,54.92
2023-01-01T17:31:31.939Z,54.27
2023-01-01T17:33:59.713Z,54.85
2023-01-01T17:36:27.603Z,55.25
2023-01-01T17:38:55.102Z,56.33
2023-01-01T17:41:22.753Z,56.99
2023-01-01T17:43:51.174Z,58.36
2023-01-01T17:46:19.578Z,58.89
2023-01-01T17:48:48.865Z,59.59
2023-01-01T17:51:17.434Z,57.47
2023-01-01T17:53:44.762Z,58.44
2023-01-01T17:56:13.102Z,58.67
2023-01-01T17:58:41.584Z,58.62
2023-01-01T18:01:24.539Z,55.64
2023-01-01T18:03:53.028Z,57.61
2023-01-01T18:06:21.283Z,58.98
2023-01-01T18:08:48.740Z,58.66
2023-01-01T18:11:16.851Z,59.80
2023-01-01T18:13:44.818Z,60.31
2023-01-01T18:16:12.220Z,60.13
2023-01-01T18:18:40.029Z,60.98
2023-01-01T18:21:08.672Z,59.40
2023-01-01T18:23:36.382Z,60.27
2023-01-01T18:26:05.463Z,56.37
2023-01-01T18:28:33.160Z,56.92
2023-01-01T18:31:07.403Z,55.84
2023-01-01T18:33:36.745Z,55.81
2023-01-01T18:36:05.746Z,55.04
2023-01-01T18:38:33.128Z,56.66
2023-01-01T18:41:10.181Z,57.25
2023-01-01T18:43:37.528Z,56.24
2023-01-01T18:46:08.721Z,57.33
2023-01-01T18:48:36.507Z,60.75
2023-01-01T18:51:10.206Z,58.35
2023-01-01T18:53:37.861Z,58.38
2023-01-01T18:56:16.455Z,59.53
2023-01-01T18:58:45.530Z,59.92
2023-01-01T19:01:16.261Z,60.03
2023-01-01T19:03:45.460Z,59.91
2023-01-01T19:06:26.118Z,59.42
2023-01-01T19:08:57.312Z,59.46
2023-01-01T19:11:24.685Z,59.55
2023-01-01T19:13:52.133Z,59.56
2023-01-01T19:16:26.731Z,58.38
2023-01-01T19:18:56.339Z,59.52
2023-01-01T19:21:23.855Z,60.69
2023-01-01T19:23:57.942Z,61.29
2023-01-01T19:26:41.871Z,60.86
2023-01-01T19:29:10.023Z,59.67
2023-01-01T19:31:37.700Z,61.36
2023-01-01T19:34:05.920Z,61.14
2023-01-01T19:36:33.670Z,61.02
2023-01-01T19:39:01.737Z,60.09
2023-01-01T19:41:29.544Z,60.84
2023-01-01T19:43:57.555Z,62.10
2023-01-01T19:46:25.897Z,61.56
2023-01-01T19:48:53.584Z,60.56
2023-01-01T19:51:22.752Z,60.31
2023-01-01T19:53:52.405Z,61.58
2023-01-01T19:56:20.589Z,59.79
2023-01-01T19:58:48.739Z,60.25
2023-01-01T20:01:17.358Z,62.57
2023-01-01T20:03:55.188Z,59.27
2023-01-01T20:09:07.037Z,60.78
2023-01-01T20:11:36.736Z,59.75
2023-01-01T20:14:05.621Z,59.34
2023-01-01T20:16:36.842Z,57.54
2023-01-01T20:19:05.152Z,59.76
2023-01-01T20:21:52.316Z,60.02
2023-01-01T20:24:22.270Z,61.43
2023-01-01T20:26:51.287Z,58.87
2023-01-01T20:29:20.881Z,59.13
2023-01-01T20:31:50.032Z,59.88
2023-01-01T20:34:21.352Z,59.51
2023-01-01T20:37:08.383Z,58.77
2023-01-01T20:39:42.075Z,60.11
2023-01-01T20:42:10.496Z,58.91
2023-01-01T20:44:43.315Z,58.91
2023-01-01T20:47:16.584Z,58.57
2023-01-01T20:49:45.688Z,55.82
2023-01-01T20:52:14.077Z,56.63
2023-01-01T20:54:41.936Z,55.64
2023-01-01T20:57:10.678Z,56.81
2023-01-01T20:59:38.852Z,57.29
2023-01-01T21:02:12.289Z,57.75
2023-01-01T21:04:40.894Z,58.56
2023-01-01T21:07:09.607Z,57.58
2023-01-01T21:09:37.829Z,58.94
2023-01-01T21:12:06.646Z,59.81
2023-01-01T21:14:34.371Z,56.98
2023-01-01T21:17:03.436Z,56.75
2023-01-01T21:19:33.327Z,57.70
2023-01-01T21:22:01.288Z,59.98
2023-01-01T21:24:33.338Z,59.05
2023-01-01T21:27:15.559Z,57.46
2023-01-01T21:29:44.551Z,57.66
2023-01-01T21:32:22.492Z,56.58
2023-01-01T21:34:51.131Z,58.61
2023-01-01T21:37:45.130Z,56.36
2023-01-01T21:40:31.658Z,58.89
2023-01-01T21:43:10.363Z,59.09
2023-01-01T21:45:38.535Z,59.87
2023-01-01T21:48:21.356Z,59.09
2023-01-01T21:50:49.165Z,56.52
2023-01-01T21:53:17.420Z,54.90
2023-01-01T21:55:54.561Z,55.40
2023-01-01T21:59:00.926Z,54.62
2023-01-01T22:01:41.884Z,54.44
2023-01-01T22:04:09.404Z,57.95
2023-01-01T22:06:39.551Z,58.81
2023-01-01T22:09:12.618Z,56.90
2023-01-01T22:11:47.558Z,57.59
2023-01-01T22:14:15.589Z,56.90
2023-01-01T22:16:43.363Z,56.46
2023-01-01T22:19:11.452Z,54.95
2023-01-01T22:21:38.656Z,54.69
2023-01-01T22:24:06.326Z,57.11
2023-01-01T22:30:25.702Z,55.91
2023-01-01T22:32:53.749Z,56.26
2023-01-01T22:35:34.864Z,56.33
2023-01-01T22:38:03.292Z,54.51
2023-01-01T22:40:50.310Z,54.90
2023-01-01T22:43:19.287Z,54.84
2023-01-01T22:45:48.007Z,53.10
2023-01-01T22:48:23.629Z,53.79
2023-01-01T22:50:54.319Z,57.27
2023-01-01T22:53:27.312Z,57.22
2023-01-01T22:55:56.484Z,55.80
2023-01-01T22:58:27.234Z,57.49
2023-01-01T23:01:06.294Z,59.36
2023-01-01T23:03:34.965Z,56.50
2023-01-01T23:06:02.875Z,55.81
2023-01-01T23:08:35.019Z,56.20
2023-01-01T23:11:04.896Z,56.42
2023-01-01T23:13:51.244Z,55.50
2023-01-01T23:16:27.331Z,58.86
2023-01-01T23:19:01.153Z,59.81
2023-01-01T23:21:29.096Z,57.99
2023-01-01T23:23:56.846Z,58.16
2023-01-01T23:26:24.528Z,57.07
2023-01-01T23:28:52.797Z,57.08
2023-01-01T23:31:25.119Z,56.88
2023-01-01T23:33:54.350Z,61.43
2023-01-01T23:36:22.587Z,59.43
2023-01-01T23:38:49.733Z,57.60
2023-01-01T23:41:19.507Z,58.46
2023-01-01T23:43:46.666Z,57.97
2023-01-01T23:46:14.146Z,56.27
2023-01-01T23:48:42.324Z,56.65
2023-01-01T23:51:09.499Z,56.45
2023-01-01T23:53:36.663Z,55.85
2023-01-01T23:56:04.213Z,57.51
2023-01-01T23:58:31.357Z,59.03
